Aetna, Tennessee
Current Conditions -  °F | °C
As of 7:55 AM on Monday 22 Dec 2014 (Local Time) from KPVE Reporting Station
Broken Clouds Broken Clouds  
Wind Chill: 45°   Ceiling: 3200
Heat Index: 48°   Visibility: 10mi
Dew Point: 46°   Wind: 7mph
Humidity: 93%   Direction: 150°SSE
Pressure: 29.87"   Gusts: NA
Location:  35.7514°N, 87.5392°W
Report Text: KPVE 221355Z AUTO 15006KT 10SM SCT015 BKN032 BKN100 09/08 A2987 RMK
Loading
Personal Weather Stations






























Interactive Weather Map New forecast layout! Learn more

10-Day Weather Forecast

Advertisements
Track Severe Weather on mobile